Urakawa, Japan

4:00 PM JST on July 28, 2014 (GMT +0900)
Obihiro (RJCB) Elev 489 ft | 42.73 °N, 143.22 °E | Change Station

Current weather conditions updated 1 hour ago

Partly Cloudy
Partly Cloudy
75 °F
Feels Like 75 °F
N
5
Wind Variable Wind from East

Tomorrow is forecast to be Cooler than today.

Today
High -- | Low -- °F
--% Chance of Precip.
Yesterday
High -- | Low -- °F
Precip. -- in
4:17 AM 6:52 PM
New Moon, 2% visible
Pressure 29.68 in
Visibility 6.2 miles
Clouds Few 4000 ft
Dew Point 59 °F
Humidity 57%
Rainfall 0.00 in
Snow Depth Not available.
UV 4 out of 12
Pollen Not available.
Air Quality Not available.
Flu Activity Not available.
METAR RJCB 280600Z 09004KT 020V170 9999 FEW040 SCT/// 24/15 Q1005

More Conditions Fewer Conditions

Pressure 29.68 in
Visibility 6.2 miles
Clouds Few 4000 ft
Dew Point 59 °F
Humidity 57%
Rainfall 0.00 in
Snow Depth Not available.
UV 4 out of 12
Pollen Not available.
Air Quality Not available.
Flu Activity Not available.
METAR RJCB 280600Z 09004KT 020V170 9999 FEW040 SCT/// 24/15 Q1005

More Conditions Fewer Conditions

10-Day Weather Forecast

Almanac

Astronomy

Jul. 28, 2014 Rise Set
Actual Time 4:17 AM JST 6:52 PM JST
Civil Twilight 3:45 AM JST 7:24 PM JST
Nautical Twilight 3:04 AM JST 8:04 PM JST
Astronomical Twilight 2:19 AM JST 8:50 PM JST
Moon 5:25 AM JST 7:11 PM JST
Length of Visible Light 15h 39m
Length of Day
14h 35m
Tomorrow will be 2m 1s shorter.
New Moon, 2% of the Moon is Illuminated
Today
New Moon
Aug 3
First Quarter
Aug 10
Full
Aug 17
Last Quarter
Aug 25
New

Yesterday's Extremes

Country Highs Country Lows

Community

WunderPhotos

Upload Photos

1,738,292 photos uploaded!

Nearby

Snow Depth

Not available.

Earthquake Activity

City Distance Mag. Time & Date
No recent earthquake activity has been reported nearby.
Minimum magnitude displayed is 2.5.

Coastal Water Temperatures

Place Temperature
No Stations Reporting

Nearby Weather Stations

There are no personal weather stations in this area.